createdAt,value
2017-09-30T00:00:40.516Z,15.04
2017-09-30T00:01:40.207Z,15.05
2017-09-30T00:02:40.191Z,15.04
2017-09-30T00:03:39.878Z,14.99
2017-09-30T00:04:39.874Z,15.04
2017-09-30T00:05:40.491Z,15.07
2017-09-30T00:06:40.331Z,15.1
2017-09-30T00:07:39.856Z,14.97
2017-09-30T00:08:40.263Z,15.1
2017-09-30T00:09:40.476Z,15
2017-09-30T00:10:40.568Z,15
2017-09-30T00:11:39.837Z,15.04
2017-09-30T00:12:40.603Z,14.93
2017-09-30T00:13:40.451Z,15.05
2017-09-30T00:14:40.237Z,15.02
2017-09-30T00:15:40.540Z,15.08
2017-09-30T00:16:40.438Z,15.18
2017-09-30T00:17:39.811Z,15.11
2017-09-30T00:18:40.115Z,15.12
2017-09-30T00:19:40.537Z,15.14
2017-09-30T00:20:40.419Z,14.99
2017-09-30T00:21:39.893Z,15.11
2017-09-30T00:22:40.094Z,14.93
2017-09-30T00:23:40.509Z,14.9
2017-09-30T00:24:40.088Z,14.9
2017-09-30T00:25:40.085Z,14.82
2017-09-30T00:26:39.767Z,14.81
2017-09-30T00:27:40.071Z,14.81
2017-09-30T00:28:40.378Z,14.81
2017-09-30T00:29:40.370Z,14.77
2017-09-30T00:30:40.059Z,14.74
2017-09-30T00:31:39.744Z,14.73
2017-09-30T00:32:40.046Z,14.68
2017-09-30T00:33:40.046Z,14.74
2017-09-30T00:34:40.036Z,14.7
2017-09-30T00:35:40.032Z,14.86
2017-09-30T00:36:39.718Z,14.85
2017-09-30T00:37:40.338Z,14.87
2017-09-30T00:38:40.532Z,14.82
2017-09-30T00:39:40.016Z,14.79
2017-09-30T00:40:40.320Z,14.85
2017-09-30T00:41:40.004Z,14.74
2017-09-30T00:42:40.197Z,14.68
2017-09-30T00:43:40.412Z,14.77
2017-09-30T00:44:40.298Z,14.71
2017-09-30T00:45:39.984Z,14.7
2017-09-30T00:46:39.670Z,14.61
2017-09-30T00:47:40.272Z,14.55
2017-09-30T00:48:40.068Z,14.58
2017-09-30T00:49:40.065Z,14.59
2017-09-30T00:50:39.656Z,14.61
2017-09-30T00:51:39.956Z,14.48
2017-09-30T00:52:40.051Z,14.45
2017-09-30T00:53:40.358Z,14.43
2017-09-30T00:54:39.944Z,14.49
2017-09-30T00:55:39.935Z,14.48
2017-09-30T00:56:39.820Z,14.44
2017-09-30T00:57:39.930Z,14.38
2017-09-30T00:58:39.610Z,14.4
2017-09-30T00:59:39.918Z,14.37
2017-09-30T01:00:39.914Z,14.43
2017-09-30T01:01:39.907Z,14.44
2017-09-30T01:02:39.899Z,14.44
2017-09-30T01:03:40.050Z,14.44
2017-09-30T01:04:39.890Z,14.49
2017-09-30T01:05:40.298Z,14.41
2017-09-30T01:06:39.882Z,14.48
2017-09-30T01:07:39.568Z,14.52
2017-09-30T01:08:39.972Z,14.51
2017-09-30T01:09:40.179Z,14.53
2017-09-30T01:10:40.377Z,14.51
2017-09-30T01:11:40.173Z,14.48
2017-09-30T01:12:40.164Z,14.52
2017-09-30T01:13:39.844Z,14.53
2017-09-30T01:14:39.842Z,14.55
2017-09-30T01:15:40.151Z,14.66
2017-09-30T01:16:39.853Z,14.61
2017-09-30T01:17:39.830Z,14.56
2017-09-30T01:18:39.514Z,14.58
2017-09-30T01:19:39.508Z,14.7
2017-09-30T01:20:39.604Z,14.7
2017-09-30T01:21:39.810Z,14.73
2017-09-30T01:22:40.122Z,14.86
2017-09-30T01:23:39.800Z,14.82
2017-09-30T01:24:39.794Z,14.77
2017-09-30T01:25:39.777Z,14.68
2017-09-30T01:26:39.784Z,14.7
2017-09-30T01:27:40.091Z,14.81
2017-09-30T01:28:39.466Z,14.85
2017-09-30T01:29:39.773Z,14.77
2017-09-30T01:30:40.278Z,14.93
2017-09-30T01:31:40.072Z,14.9
2017-09-30T01:32:40.066Z,14.87
2017-09-30T01:33:39.752Z,14.9
2017-09-30T01:34:40.255Z,14.92
2017-09-30T01:35:39.458Z,14.99
2017-09-30T01:36:39.736Z,14.96
2017-09-30T01:37:39.730Z,14.96
2017-09-30T01:38:39.728Z,15
2017-09-30T01:39:40.031Z,14.92
2017-09-30T01:40:39.718Z,14.89
2017-09-30T01:41:39.809Z,14.86
2017-09-30T01:42:39.806Z,14.86
2017-09-30T01:43:39.704Z,14.86
2017-09-30T01:44:39.386Z,14.86
2017-09-30T01:45:39.693Z,14.79
2017-09-30T01:46:39.800Z,14.81
2017-09-30T01:47:39.522Z,14.67
2017-09-30T01:48:39.675Z,14.7
2017-09-30T01:49:39.359Z,14.62
2017-09-30T01:50:39.979Z,14.62
2017-09-30T01:51:39.976Z,14.63
2017-09-30T01:52:39.655Z,14.63
2017-09-30T01:53:39.442Z,14.62
2017-09-30T01:54:39.956Z,14.68
2017-09-30T01:55:40.351Z,14.66
2017-09-30T01:56:39.326Z,14.68
2017-09-30T01:57:40.043Z,14.86
2017-09-30T01:58:39.937Z,14.86
2017-09-30T01:59:40.031Z,14.81
2017-09-30T02:00:39.305Z,14.86
2017-09-30T02:01:39.925Z,14.97
2017-09-30T02:02:40.215Z,14.87
2017-09-30T02:03:39.601Z,15.07
2017-09-30T02:04:39.907Z,14.94
2017-09-30T02:05:39.592Z,14.94
2017-09-30T02:06:39.378Z,15.02
2017-09-30T02:07:39.268Z,15.07
2017-09-30T02:08:39.578Z,14.96
2017-09-30T02:09:39.673Z,15.08
2017-09-30T02:10:39.877Z,15.11
2017-09-30T02:11:39.664Z,15.1
2017-09-30T02:12:39.247Z,15.1
2017-09-30T02:13:39.554Z,15.14
2017-09-30T02:14:39.237Z,15.12
2017-09-30T02:15:39.640Z,15.15
2017-09-30T02:16:39.540Z,15.14
2017-09-30T02:17:40.044Z,15.12
2017-09-30T02:18:39.527Z,15.08
2017-09-30T02:19:39.537Z,15.07
2017-09-30T02:20:39.205Z,15.11
2017-09-30T02:21:39.513Z,15.14
2017-09-30T02:22:39.507Z,15.11
2017-09-30T02:23:40.012Z,15.12
2017-09-30T02:24:39.391Z,15.08
2017-09-30T02:25:39.491Z,14.99
2017-09-30T02:26:39.490Z,15.02
2017-09-30T02:27:39.790Z,14.94
2017-09-30T02:28:39.787Z,14.89
2017-09-30T02:29:39.163Z,14.86
2017-09-30T02:30:39.468Z,14.67
2017-09-30T02:31:40.073Z,14.66
2017-09-30T02:32:39.769Z,14.77
2017-09-30T02:33:39.658Z,14.67
2017-09-30T02:34:39.963Z,14.62
2017-09-30T02:35:39.136Z,14.66
2017-09-30T02:36:39.230Z,14.62
2017-09-30T02:37:39.762Z,14.68
2017-09-30T02:38:39.435Z,14.67
2017-09-30T02:39:39.115Z,14.71
2017-09-30T02:40:39.421Z,14.7
2017-09-30T02:41:39.614Z,14.71
2017-09-30T02:42:39.615Z,14.71
2017-09-30T02:43:39.716Z,14.67
2017-09-30T02:44:39.872Z,14.62
2017-09-30T02:45:39.082Z,14.67
2017-09-30T02:46:39.395Z,14.62
2017-09-30T02:47:39.694Z,14.63
2017-09-30T02:48:39.482Z,14.63
2017-09-30T02:49:39.691Z,14.68
2017-09-30T02:50:39.369Z,14.68
2017-09-30T02:51:39.155Z,14.85
2017-09-30T02:52:39.359Z,14.82
2017-09-30T02:53:39.695Z,14.82
2017-09-30T02:54:39.448Z,14.79
2017-09-30T02:55:39.035Z,14.86
2017-09-30T02:56:39.031Z,14.85
2017-09-30T02:57:39.333Z,14.77
2017-09-30T02:58:39.640Z,14.86
2017-09-30T02:59:39.215Z,14.87
2017-09-30T03:00:39.319Z,14.79
2017-09-30T03:01:39.318Z,14.81
2017-09-30T03:02:39.620Z,14.79
2017-09-30T03:03:39.507Z,14.73
2017-09-30T03:04:39.718Z,14.7
2017-09-30T03:05:38.984Z,14.7
2017-09-30T03:06:38.978Z,14.68
2017-09-30T03:07:39.284Z,14.59
2017-09-30T03:08:39.593Z,14.68
2017-09-30T03:09:39.375Z,14.66
2017-09-30T03:10:39.595Z,14.7
2017-09-30T03:11:39.575Z,14.61
2017-09-30T03:12:39.260Z,14.66
2017-09-30T03:13:38.942Z,14.53
2017-09-30T03:14:39.349Z,14.59
2017-09-30T03:15:39.448Z,14.59
2017-09-30T03:16:39.548Z,14.52
2017-09-30T03:17:39.570Z,14.56
2017-09-30T03:18:39.541Z,14.49
2017-09-30T03:19:39.644Z,14.52
2017-09-30T03:20:39.219Z,14.49
2017-09-30T03:21:39.002Z,14.48
2017-09-30T03:22:39.521Z,14.4
2017-09-30T03:23:38.892Z,14.37
2017-09-30T03:24:39.204Z,14.4
2017-09-30T03:25:39.193Z,14.38
2017-09-30T03:26:39.189Z,14.37
2017-09-30T03:27:38.874Z,14.4
2017-09-30T03:28:38.870Z,14.38
2017-09-30T03:29:39.216Z,14.49
2017-09-30T03:30:39.178Z,14.44
2017-09-30T03:31:39.474Z,14.49
2017-09-30T03:32:39.478Z,14.52
2017-09-30T03:33:38.947Z,14.43
2017-09-30T03:34:39.148Z,14.48
2017-09-30T03:35:39.461Z,14.48
2017-09-30T03:36:38.827Z,14.52
2017-09-30T03:37:39.474Z,14.44
2017-09-30T03:38:39.536Z,14.56
2017-09-30T03:39:39.127Z,14.59
2017-09-30T03:40:38.807Z,14.52
2017-09-30T03:41:39.529Z,14.45
2017-09-30T03:42:38.799Z,14.52
2017-09-30T03:43:39.356Z,14.41
2017-09-30T03:44:38.788Z,14.38
2017-09-30T03:45:39.093Z,14.44
2017-09-30T03:46:38.780Z,14.4
2017-09-30T03:47:39.181Z,14.44
2017-09-30T03:48:39.502Z,14.41
2017-09-30T03:49:39.486Z,14.43
2017-09-30T03:50:39.377Z,14.44
2017-09-30T03:51:38.852Z,14.53
2017-09-30T03:52:39.056Z,14.56
2017-09-30T03:53:39.155Z,14.53
2017-09-30T03:54:39.046Z,14.49
2017-09-30T03:55:39.355Z,14.45
2017-09-30T03:56:39.353Z,14.51
2017-09-30T03:57:39.345Z,14.44
2017-09-30T03:58:39.339Z,14.4
2017-09-30T03:59:38.714Z,14.37
2017-09-30T04:00:39.430Z,14.36
2017-09-30T04:01:38.706Z,14.4
2017-09-30T04:02:39.010Z,14.43
2017-09-30T04:03:39.314Z,14.38
2017-09-30T04:04:39.001Z,14.38
2017-09-30T04:05:38.683Z,14.36
2017-09-30T04:06:38.989Z,14.37
2017-09-30T04:07:38.985Z,14.4
2017-09-30T04:08:38.983Z,14.31
2017-09-30T04:09:39.489Z,14.3
2017-09-30T04:10:39.279Z,14.36
2017-09-30T04:11:38.652Z,14.31
2017-09-30T04:12:38.964Z,14.36
2017-09-30T04:13:38.952Z,14.22
2017-09-30T04:14:38.737Z,14.28
2017-09-30T04:15:39.355Z,14.31
2017-09-30T04:16:39.252Z,14.26
2017-09-30T04:17:38.624Z,14.26
2017-09-30T04:18:38.929Z,14.45
2017-09-30T04:19:38.933Z,14.4
2017-09-30T04:20:38.611Z,14.41
2017-09-30T04:21:39.014Z,14.48
2017-09-30T04:22:38.912Z,14.44
2017-09-30T04:23:38.904Z,14.45
2017-09-30T04:24:39.208Z,14.53
2017-09-30T04:25:38.893Z,14.48
2017-09-30T04:26:38.888Z,14.53
2017-09-30T04:27:38.884Z,14.52
2017-09-30T04:28:38.569Z,14.56
2017-09-30T04:29:38.875Z,14.52
2017-09-30T04:30:39.177Z,14.53
2017-09-30T04:31:38.965Z,14.51
2017-09-30T04:32:38.961Z,14.52
2017-09-30T04:33:38.853Z,14.41
2017-09-30T04:34:38.848Z,14.37
2017-09-30T04:35:38.533Z,14.44
2017-09-30T04:36:38.625Z,14.4
2017-09-30T04:37:38.833Z,14.37
2017-09-30T04:38:38.923Z,14.28
2017-09-30T04:39:39.139Z,14.26
2017-09-30T04:40:38.822Z,14.3
2017-09-30T04:41:38.504Z,14.37
2017-09-30T04:42:39.119Z,14.34
2017-09-30T04:43:38.591Z,14.3
2017-09-30T04:44:39.207Z,14.34
2017-09-30T04:45:38.794Z,14.31
2017-09-30T04:46:38.786Z,14.31
2017-09-30T04:47:38.882Z,14.22
2017-09-30T04:48:38.474Z,14.2
2017-09-30T04:49:38.463Z,14.25
2017-09-30T04:50:38.771Z,14.28
2017-09-30T04:51:38.762Z,14.34
2017-09-30T04:52:39.068Z,14.28
2017-09-30T04:53:38.440Z,14.28
2017-09-30T04:54:38.433Z,14.25
2017-09-30T04:55:38.431Z,14.28
2017-09-30T04:56:38.739Z,14.23
2017-09-30T04:57:39.041Z,14.19
2017-09-30T04:58:38.831Z,14.16
2017-09-30T04:59:38.820Z,14.19
2017-09-30T05:00:38.812Z,14.19
2017-09-30T05:01:39.030Z,14.3
2017-09-30T05:02:38.702Z,14.23
2017-09-30T05:03:38.390Z,14.37
2017-09-30T05:04:38.484Z,14.3
2017-09-30T05:05:38.384Z,14.31
2017-09-30T05:06:38.685Z,14.31
2017-09-30T05:07:38.681Z,14.3
2017-09-30T05:08:38.674Z,14.34
2017-09-30T05:09:38.772Z,14.37
2017-09-30T05:10:38.975Z,14.38
2017-09-30T05:11:38.348Z,14.38
2017-09-30T05:12:38.659Z,14.48
2017-09-30T05:13:38.339Z,14.49
2017-09-30T05:14:39.060Z,14.44
2017-09-30T05:15:38.738Z,14.51
2017-09-30T05:16:38.323Z,14.37
2017-09-30T05:17:38.629Z,14.33
2017-09-30T05:18:38.313Z,14.52
2017-09-30T05:19:38.927Z,14.38
2017-09-30T05:20:39.026Z,14.41
2017-09-30T05:21:38.299Z,14.3
2017-09-30T05:22:38.917Z,14.36
2017-09-30T05:23:39.010Z,14.23
2017-09-30T05:24:38.283Z,14.25
2017-09-30T05:25:38.588Z,14.22
2017-09-30T05:26:38.581Z,14.22
2017-09-30T05:27:38.267Z,14.12
2017-09-30T05:28:38.574Z,14.03
2017-09-30T05:29:38.880Z,13.95
2017-09-30T05:30:38.565Z,14.04
2017-09-30T05:31:38.557Z,14.05
2017-09-30T05:32:38.550Z,14.12
2017-09-30T05:33:38.864Z,14.15
2017-09-30T05:34:38.542Z,14.23
2017-09-30T05:35:38.891Z,14.2
2017-09-30T05:36:38.635Z,14.23
2017-09-30T05:37:38.217Z,14.22
2017-09-30T05:38:38.529Z,14.25
2017-09-30T05:39:38.209Z,14.25
2017-09-30T05:40:38.825Z,14.22
2017-09-30T05:41:38.196Z,14.34
2017-09-30T05:42:38.190Z,14.34
2017-09-30T05:43:38.388Z,14.22
2017-09-30T05:44:38.598Z,14.22
2017-09-30T05:45:38.900Z,14.26
2017-09-30T05:46:38.792Z,14.36
2017-09-30T05:47:38.475Z,14.31
2017-09-30T05:48:38.474Z,14.34
2017-09-30T05:49:38.565Z,14.33
2017-09-30T05:50:38.772Z,14.25
2017-09-30T05:51:38.456Z,14.25
2017-09-30T05:52:38.140Z,14.22
2017-09-30T05:53:38.132Z,14.22
2017-09-30T05:54:38.540Z,14.25
2017-09-30T05:55:38.435Z,14.3
2017-09-30T05:56:38.435Z,14.26
2017-09-30T05:57:38.116Z,14.33
2017-09-30T05:58:38.744Z,14.23
2017-09-30T05:59:38.728Z,14.26
2017-09-30T06:00:38.413Z,14.25
2017-09-30T06:01:38.405Z,14.28
2017-09-30T06:02:38.188Z,14.34
2017-09-30T06:03:38.084Z,14.28
2017-09-30T06:04:38.412Z,14.23
2017-09-30T06:05:38.493Z,14.26
2017-09-30T06:06:38.070Z,14.22
2017-09-30T06:07:38.688Z,14.2
2017-09-30T06:08:38.682Z,14.25
2017-09-30T06:09:38.152Z,14.26
2017-09-30T06:10:38.048Z,14.34
2017-09-30T06:11:38.454Z,14.33
2017-09-30T06:12:38.039Z,14.34
2017-09-30T06:13:38.443Z,14.19
2017-09-30T06:14:38.341Z,14.28
2017-09-30T06:15:38.022Z,14.19
2017-09-30T06:16:38.119Z,14.2
2017-09-30T06:17:38.645Z,14.19
2017-09-30T06:18:38.108Z,14.16
2017-09-30T06:19:38.004Z,14.25
2017-09-30T06:20:37.997Z,14.19
2017-09-30T06:21:38.096Z,14.41
2017-09-30T06:22:38.300Z,14.34
2017-09-30T06:23:37.980Z,14.33
2017-09-30T06:24:38.080Z,14.38
2017-09-30T06:25:38.601Z,14.45
2017-09-30T06:26:38.374Z,14.52
2017-09-30T06:27:38.272Z,14.52
2017-09-30T06:28:38.268Z,14.59
2017-09-30T06:29:38.362Z,14.56
2017-09-30T06:30:38.049Z,14.55
2017-09-30T06:31:38.353Z,14.58
2017-09-30T06:32:38.248Z,14.52
2017-09-30T06:33:38.240Z,14.52
2017-09-30T06:34:37.926Z,14.44
2017-09-30T06:35:38.266Z,14.49
2017-09-30T06:36:38.229Z,14.41
2017-09-30T06:37:38.323Z,14.4
2017-09-30T06:38:38.629Z,14.45
2017-09-30T06:39:38.213Z,14.38
2017-09-30T06:40:37.997Z,14.48
2017-09-30T06:41:38.301Z,14.48
2017-09-30T06:42:37.884Z,14.52
2017-09-30T06:43:37.880Z,14.62
2017-09-30T06:44:38.194Z,14.56
2017-09-30T06:45:38.180Z,14.62
2017-09-30T06:46:37.863Z,14.52
2017-09-30T06:47:38.173Z,14.62
2017-09-30T06:48:38.168Z,14.66
2017-09-30T06:49:37.849Z,14.62
2017-09-30T06:50:37.841Z,14.7
2017-09-30T06:51:37.840Z,14.82
2017-09-30T06:52:38.453Z,14.81
2017-09-30T06:53:38.138Z,14.93
2017-09-30T06:54:38.448Z,14.99
2017-09-30T06:55:38.437Z,15.02
2017-09-30T06:56:37.814Z,15.08
2017-09-30T06:57:38.121Z,15.11
2017-09-30T06:58:38.522Z,15.15
2017-09-30T06:59:38.417Z,15.1
2017-09-30T07:00:37.795Z,15.18
2017-09-30T07:01:38.405Z,15.27
2017-09-30T07:02:38.193Z,15.3
2017-09-30T07:03:38.396Z,15.25
2017-09-30T07:04:38.494Z,15.22
2017-09-30T07:05:37.766Z,15.25
2017-09-30T07:06:37.861Z,15.26
2017-09-30T07:07:37.757Z,15.27
2017-09-30T07:08:38.064Z,15.27
2017-09-30T07:09:38.375Z,15.25
2017-09-30T07:10:38.054Z,15.23
2017-09-30T07:11:38.047Z,15.15
2017-09-30T07:12:38.042Z,15.3
2017-09-30T07:13:38.448Z,15.27
2017-09-30T07:14:38.342Z,15.25
2017-09-30T07:15:38.029Z,15.43
2017-09-30T07:16:37.711Z,15.41
2017-09-30T07:17:38.019Z,15.35
2017-09-30T07:18:37.810Z,15.45
2017-09-30T07:19:37.699Z,15.51
2017-09-30T07:20:38.413Z,15.51
2017-09-30T07:21:37.998Z,15.48
2017-09-30T07:22:38.304Z,15.47
2017-09-30T07:23:37.987Z,15.47
2017-09-30T07:24:37.984Z,15.44
2017-09-30T07:25:37.766Z,15.36
2017-09-30T07:26:37.662Z,15.39
2017-09-30T07:27:37.968Z,15.41
2017-09-30T07:28:38.276Z,15.45
2017-09-30T07:29:37.962Z,15.36
2017-09-30T07:30:38.281Z,15.32
2017-09-30T07:31:37.949Z,15.44
2017-09-30T07:32:37.943Z,15.45
2017-09-30T07:33:37.628Z,15.47
2017-09-30T07:34:38.035Z,15.5
2017-09-30T07:35:38.030Z,15.55
2017-09-30T07:36:38.023Z,15.55
2017-09-30T07:37:37.921Z,15.66
2017-09-30T07:38:37.909Z,15.65
2017-09-30T07:39:37.905Z,15.62
2017-09-30T07:40:37.593Z,15.75
2017-09-30T07:41:38.211Z,15.62
2017-09-30T07:42:37.892Z,15.63
2017-09-30T07:43:37.892Z,15.69
2017-09-30T07:44:37.884Z,15.67
2017-09-30T07:45:37.670Z,15.69
2017-09-30T07:46:38.294Z,15.8
2017-09-30T07:47:37.557Z,15.73
2017-09-30T07:48:38.180Z,15.69
2017-09-30T07:49:37.855Z,15.85
2017-09-30T07:50:38.279Z,15.85
2017-09-30T07:51:37.847Z,15.85
2017-09-30T07:52:37.536Z,15.9
2017-09-30T07:53:37.837Z,16.02
2017-09-30T07:54:37.526Z,16.03
2017-09-30T07:55:37.829Z,15.94
2017-09-30T07:56:37.823Z,15.9
2017-09-30T07:57:37.921Z,15.92
2017-09-30T07:58:37.815Z,15.83
2017-09-30T07:59:38.118Z,15.87
2017-09-30T08:00:37.805Z,15.85
2017-09-30T08:01:37.587Z,15.81
2017-09-30T08:02:38.004Z,15.88
2017-09-30T08:03:38.128Z,15.84
2017-09-30T08:04:37.473Z,15.87
2017-09-30T08:05:38.093Z,15.9
2017-09-30T08:06:37.463Z,15.81
2017-09-30T08:07:38.079Z,15.76
2017-09-30T08:08:37.763Z,15.67
2017-09-30T08:09:37.758Z,15.8
2017-09-30T08:10:37.775Z,15.73
2017-09-30T08:11:37.749Z,15.66
2017-09-30T08:12:37.846Z,15.7
2017-09-30T08:13:37.427Z,15.67
2017-09-30T08:14:38.147Z,15.7
2017-09-30T08:15:37.416Z,15.81
2017-09-30T08:16:37.731Z,15.72
2017-09-30T08:17:37.816Z,15.62
2017-09-30T08:18:37.726Z,15.65
2017-09-30T08:19:38.022Z,15.78
2017-09-30T08:20:38.014Z,15.7
2017-09-30T08:21:37.802Z,15.72
2017-09-30T08:22:37.719Z,15.73
2017-09-30T08:23:37.377Z,15.69
2017-09-30T08:24:38.100Z,15.66
2017-09-30T08:25:37.367Z,15.78
2017-09-30T08:26:37.464Z,15.65
2017-09-30T08:27:37.355Z,15.8
2017-09-30T08:28:37.352Z,15.76
2017-09-30T08:29:37.760Z,15.75
2017-09-30T08:30:37.656Z,15.76
2017-09-30T08:31:37.338Z,15.83
2017-09-30T08:32:37.960Z,15.76
2017-09-30T08:33:37.328Z,15.84
2017-09-30T08:34:37.837Z,15.94
2017-09-30T08:35:37.940Z,15.96
2017-09-30T08:36:37.628Z,15.99
2017-09-30T08:37:37.933Z,16.06
2017-09-30T08:38:37.615Z,16.1
2017-09-30T08:39:37.610Z,16.18
2017-09-30T08:40:37.292Z,16.12
2017-09-30T08:41:37.290Z,16.24
2017-09-30T08:42:37.592Z,16.32
2017-09-30T08:43:37.691Z,16.32
2017-09-30T08:44:37.272Z,16.34
2017-09-30T08:45:37.266Z,16.39
2017-09-30T08:46:37.674Z,16.41
2017-09-30T08:47:37.568Z,16.43
2017-09-30T08:48:37.564Z,16.43
2017-09-30T08:49:37.351Z,16.55
2017-09-30T08:50:37.556Z,16.54
2017-09-30T08:51:37.552Z,16.5
2017-09-30T08:52:37.337Z,16.55
2017-09-30T08:53:37.862Z,16.51
2017-09-30T08:54:37.227Z,16.55
2017-09-30T08:55:37.224Z,16.65
2017-09-30T08:56:37.527Z,16.74
2017-09-30T08:57:37.839Z,16.8
2017-09-30T08:58:37.824Z,16.83
2017-09-30T08:59:37.823Z,16.92
2017-09-30T09:00:37.505Z,16.97
2017-09-30T09:01:37.506Z,17.05
2017-09-30T09:02:37.495Z,17.13
2017-09-30T09:03:37.181Z,17.09
2017-09-30T09:04:37.278Z,17.14
2017-09-30T09:05:37.169Z,17.2
2017-09-30T09:06:37.581Z,17.1
2017-09-30T09:07:37.469Z,17.12
2017-09-30T09:08:37.778Z,17.16
2017-09-30T09:09:37.776Z,17.23
2017-09-30T09:10:37.457Z,17.3
2017-09-30T09:11:37.139Z,17.34
2017-09-30T09:12:37.861Z,17.37
2017-09-30T09:13:37.445Z,17.35
2017-09-30T09:14:37.441Z,17.44
2017-09-30T09:15:37.842Z,17.47
2017-09-30T09:16:37.428Z,17.54
2017-09-30T09:17:37.430Z,17.47
2017-09-30T09:18:37.520Z,17.46
2017-09-30T09:19:37.516Z,17.41
2017-09-30T09:20:37.100Z,17.49
2017-09-30T09:21:37.406Z,17.49
2017-09-30T09:22:37.402Z,17.44
2017-09-30T09:23:37.705Z,17.44
2017-09-30T09:24:37.392Z,17.42
2017-09-30T09:25:37.076Z,17.44
2017-09-30T09:26:37.690Z,17.46
2017-09-30T09:27:37.689Z,17.42
2017-09-30T09:28:37.373Z,17.47
2017-09-30T09:29:37.678Z,17.41
2017-09-30T09:30:37.360Z,17.35
2017-09-30T09:31:37.454Z,17.37
2017-09-30T09:32:37.665Z,17.35
2017-09-30T09:33:37.347Z,17.46
2017-09-30T09:34:37.446Z,17.44
2017-09-30T09:35:37.026Z,17.49
2017-09-30T09:36:37.434Z,17.5
2017-09-30T09:37:37.327Z,17.52
2017-09-30T09:38:37.011Z,17.56
2017-09-30T09:39:37.320Z,17.57
2017-09-30T09:40:37.315Z,17.71
2017-09-30T09:41:37.306Z,17.75
2017-09-30T09:42:37.307Z,17.76
2017-09-30T09:43:37.613Z,17.9
2017-09-30T09:44:37.183Z,17.94
2017-09-30T09:45:37.290Z,18.02
2017-09-30T09:46:37.286Z,17.93
2017-09-30T09:47:37.281Z,17.94
2017-09-30T09:48:36.966Z,18
2017-09-30T09:49:37.683Z,17.95
2017-09-30T09:50:37.268Z,18.08
2017-09-30T09:51:37.569Z,18.11
2017-09-30T09:52:37.570Z,18.08
2017-09-30T09:53:36.942Z,18.12
2017-09-30T09:54:37.256Z,18.11
2017-09-30T09:55:37.242Z,18.09
2017-09-30T09:56:37.239Z,18.08
2017-09-30T09:57:37.547Z,18.08
2017-09-30T09:58:36.916Z,18.15
2017-09-30T09:59:37.225Z,18.15
2017-09-30T10:00:37.223Z,18.15
2017-09-30T10:01:36.905Z,18.27
2017-09-30T10:02:36.899Z,18.21
2017-09-30T10:03:36.896Z,18.3
2017-09-30T10:04:37.201Z,18.3
2017-09-30T10:05:37.193Z,18.37
2017-09-30T10:06:36.978Z,18.41
2017-09-30T10:07:37.497Z,18.42
2017-09-30T10:08:37.186Z,18.52
2017-09-30T10:09:37.174Z,18.52
2017-09-30T10:10:37.491Z,18.58
2017-09-30T10:11:36.859Z,18.53
2017-09-30T10:12:36.852Z,18.6
2017-09-30T10:13:36.850Z,18.67
2017-09-30T10:14:36.852Z,18.7
2017-09-30T10:15:37.470Z,18.78
2017-09-30T10:16:37.246Z,18.71
2017-09-30T10:17:36.831Z,18.85
2017-09-30T10:18:37.237Z,18.78
2017-09-30T10:19:36.820Z,18.82
2017-09-30T10:20:36.816Z,18.92
2017-09-30T10:21:36.909Z,19.04
2017-09-30T10:22:37.116Z,19.01
2017-09-30T10:23:37.114Z,19.09
2017-09-30T10:24:37.109Z,19.23
2017-09-30T10:25:37.103Z,19.3
2017-09-30T10:26:36.787Z,19.38
2017-09-30T10:27:37.200Z,19.41
2017-09-30T10:28:37.393Z,19.44
2017-09-30T10:29:36.778Z,19.52
2017-09-30T10:30:37.399Z,19.45
2017-09-30T10:31:37.388Z,19.47
2017-09-30T10:32:37.077Z,19.52
2017-09-30T10:33:37.484Z,19.42
2017-09-30T10:34:37.376Z,19.42
2017-09-30T10:35:37.379Z,19.48
2017-09-30T10:36:37.056Z,19.42
2017-09-30T10:37:37.460Z,19.48
2017-09-30T10:38:36.735Z,19.47
2017-09-30T10:39:37.042Z,19.52
2017-09-30T10:40:37.035Z,19.52
2017-09-30T10:41:37.552Z,19.56
2017-09-30T10:42:37.342Z,19.53
2017-09-30T10:43:37.332Z,19.56
2017-09-30T10:44:37.121Z,19.48
2017-09-30T10:45:37.328Z,19.42
2017-09-30T10:46:37.320Z,19.47
2017-09-30T10:47:37.006Z,19.42
2017-09-30T10:48:37.010Z,19.39
2017-09-30T10:49:36.789Z,19.38
2017-09-30T10:50:36.682Z,19.26
2017-09-30T10:51:36.676Z,19.37
2017-09-30T10:52:36.674Z,19.35
2017-09-30T10:53:36.668Z,19.38
2017-09-30T10:54:37.288Z,19.34
2017-09-30T10:55:36.974Z,19.47
2017-09-30T10:56:37.273Z,19.49
2017-09-30T10:57:36.975Z,19.45
2017-09-30T10:58:36.958Z,19.53
2017-09-30T10:59:37.052Z,19.56
2017-09-30T11:00:37.262Z,19.62
2017-09-30T11:01:36.944Z,19.71
2017-09-30T11:02:36.935Z,19.72
2017-09-30T11:03:36.938Z,19.75
2017-09-30T11:04:36.928Z,19.75
2017-09-30T11:05:36.615Z,19.77
2017-09-30T11:06:36.924Z,19.93
2017-09-30T11:07:36.606Z,19.89
2017-09-30T11:08:36.912Z,19.84
2017-09-30T11:09:36.696Z,19.82
2017-09-30T11:10:37.003Z,19.85
2017-09-30T11:11:36.900Z,19.89
2017-09-30T11:12:36.996Z,19.96
2017-09-30T11:13:36.579Z,19.93
2017-09-30T11:14:36.884Z,19.93
2017-09-30T11:15:36.574Z,19.96
2017-09-30T11:16:36.874Z,20.04
2017-09-30T11:17:36.874Z,20.03
2017-09-30T11:18:36.556Z,20.12
2017-09-30T11:19:37.175Z,20.1
2017-09-30T11:20:37.274Z,20.03
2017-09-30T11:21:36.957Z,20
2017-09-30T11:22:37.164Z,20.02
2017-09-30T11:23:36.846Z,20.08
2017-09-30T11:24:36.532Z,20.12
2017-09-30T11:25:36.941Z,20.17
2017-09-30T11:26:36.523Z,20.19
2017-09-30T11:27:36.516Z,20.24
2017-09-30T11:28:36.828Z,20.22
2017-09-30T11:29:36.510Z,20.3
2017-09-30T11:30:37.017Z,20.32
2017-09-30T11:31:37.121Z,20.32
2017-09-30T11:32:36.600Z,20.36
2017-09-30T11:33:36.593Z,20.36
2017-09-30T11:34:37.125Z,20.3
2017-09-30T11:35:37.101Z,20.52
2017-09-30T11:36:36.891Z,20.49
2017-09-30T11:37:37.095Z,20.55
2017-09-30T11:38:36.883Z,20.44
2017-09-30T11:39:36.877Z,20.56
2017-09-30T11:40:36.780Z,20.56
2017-09-30T11:41:36.768Z,20.58
2017-09-30T11:42:37.086Z,20.66
2017-09-30T11:43:36.448Z,20.55
2017-09-30T11:44:36.859Z,20.66
2017-09-30T11:45:37.056Z,20.67
2017-09-30T11:46:36.745Z,20.68
2017-09-30T11:47:36.840Z,20.74
2017-09-30T11:48:36.424Z,20.75
2017-09-30T11:49:36.421Z,20.77
2017-09-30T11:50:36.420Z,20.73
2017-09-30T11:51:36.414Z,20.73
2017-09-30T11:52:36.822Z,20.73
2017-09-30T11:53:36.508Z,20.75
2017-09-30T11:54:36.711Z,20.77
2017-09-30T11:55:36.707Z,20.75
2017-09-30T11:56:36.707Z,20.83
2017-09-30T11:57:37.008Z,20.85
2017-09-30T11:58:36.484Z,20.88
2017-09-30T11:59:36.382Z,20.88
2017-09-30T12:00:36.994Z,20.88
2017-09-30T12:01:36.370Z,20.85
2017-09-30T12:02:37.095Z,20.85
2017-09-30T12:03:36.464Z,20.8
2017-09-30T12:04:36.768Z,20.82
2017-09-30T12:05:36.765Z,20.89
2017-09-30T12:06:36.659Z,20.88
2017-09-30T12:07:36.764Z,20.9
2017-09-30T12:08:36.964Z,20.92
2017-09-30T12:09:36.335Z,21.03
2017-09-30T12:10:36.432Z,21
2017-09-30T12:11:36.331Z,21.13
2017-09-30T12:12:37.047Z,21.14
2017-09-30T12:13:36.627Z,21.22
2017-09-30T12:14:36.626Z,21.22
2017-09-30T12:15:37.032Z,21.28
2017-09-30T12:16:36.932Z,21.3
2017-09-30T12:17:36.714Z,21.3
2017-09-30T12:18:36.713Z,21.4
2017-09-30T12:19:36.917Z,21.38
2017-09-30T12:20:36.599Z,21.38
2017-09-30T12:21:36.288Z,21.35
2017-09-30T12:22:36.901Z,21.26
2017-09-30T12:23:36.280Z,21.08
2017-09-30T12:24:36.582Z,21
2017-09-30T12:25:36.580Z,21
2017-09-30T12:26:36.265Z,20.93
2017-09-30T12:27:36.671Z,20.86
2017-09-30T12:28:36.362Z,20.89
2017-09-30T12:29:36.567Z,20.9
2017-09-30T12:30:36.880Z,20.8
2017-09-30T12:31:36.555Z,20.82
2017-09-30T12:32:36.549Z,20.82
2017-09-30T12:33:36.233Z,20.89
2017-09-30T12:34:36.640Z,20.86
2017-09-30T12:35:36.850Z,21.01
2017-09-30T12:36:36.532Z,20.98
2017-09-30T12:37:36.318Z,21
2017-09-30T12:38:36.835Z,21.11
2017-09-30T12:39:36.208Z,21.1
2017-09-30T12:40:36.830Z,21.17
2017-09-30T12:41:36.513Z,21.26
2017-09-30T12:42:36.199Z,21.23
2017-09-30T12:43:36.602Z,21.19
2017-09-30T12:44:36.502Z,21.19
2017-09-30T12:45:36.493Z,21.05
2017-09-30T12:46:36.492Z,21
2017-09-30T12:47:36.486Z,20.96
2017-09-30T12:48:36.585Z,20.95
2017-09-30T12:49:36.168Z,20.85
2017-09-30T12:50:36.361Z,20.9
2017-09-30T12:51:36.778Z,20.88
2017-09-30T12:52:36.154Z,20.85
2017-09-30T12:53:36.564Z,20.85
2017-09-30T12:54:36.454Z,21.01
2017-09-30T12:55:36.451Z,21.11
2017-09-30T12:56:36.447Z,21.23